Lloydminster Airport
CYLL : now visible

Airfield :











YOU CAN JOIN US ON...

 
LOGIN :

Register | Disclaimer

   EN    FR    IT 

 









Legend :    VFR   Marginal VFR   IFR   Intensive IFR   Very Intensive IFR
Visi :
Ceiling :
>= 8 km
>= 3000ft
5 to 8 km
1000 to 3000 ft
1500m to 5 km
500 to 1000 ft
800 to 1500m
200 to 500 ft
< 800m
< 200 ft
Symbols :   Thunderstorms  Fog  Heavy snow  Heavy precipitations  Wind > 20 kt






- Airport Elevation : 2193 ft
- IATA code : YLL


CYLL - Lloydminster

CURRENT METAR :
  • 281000Z AUTO 30010KT 9SM FEW039 OVC055 00/M01 A2987 RMK SLP141

EXPIRED METARs :
  • 280900Z AUTO 29010KT 9SM FEW045 BKN060 00/M02 A2985 RMK SLP137
  • 280812Z AUTO 30010G15KT 9SM SCT021 BKN034 OVC041 01/M01 A2983 RMK SLP128

TAF AMD TAF CYLL
Valid from the 28 at 07:00 until the 28 at 18:00 UTC


280714Z 2807/2818 31012KT P6SM SCT015 BKN025
TEMPO 2807/2813 6SM -SN BKN015 OVC025
FM281300 32008KT P6SM SCT008 OVC012
TEMPO 2813/2817 BKN008
BECMG 2817/2818 SCT015 RMK FCST BASED ON AUTO OBS. NXT FCST BY 281200Z
CZEG FIR / North America



MET'MAP, your aeronautical weather chart ! - Copyright ORBIFLY December 2007 - Disclaimer

ORBIFLY MET'MAP TEAM :

Programming & Development : Alexandra Zaïnal
Concept & original design : Baudouin d'Aumeries
Assistance for programming : Marc-Olivier Méhu
Technical & hardware support : Manuel Goepfert

Contact : metmap@orbifly.com




SOURCES & CREDITS :

   NOAA       Earth
Advisory